KBED/BED METAR and TAF weather

Enter ICAO airport designator
Station Type Date Time Source
KBED METAR 2018/09/21 23:56 UTC NOAA

KBED 212356Z 19014KT 10SM BKN036 OVC046 18/14 A2997 RMK AO2 RAB05E20 SLP162 P0000 60000 T01830139 10222 20183 56028


Station Type Date Time Source
KBED Decoded METAR 2018/09/21 23:56 UTC NOAA

BEDFORD HANSCOM FIELD, MA, United States (KBED) 42-28N 071-18W 50M
Sep 21, 2018 - 07:56 PM EDT / 2018.09.21 2356 UTC
Wind: from the S (190 degrees) at 16 MPH (14 KT):0
Visibility: 10 mile(s):0
Sky conditions: overcast
Precipitation last hour: A trace
Temperature: 64.9 F (18.3 C)
Dew Point: 57.0 F (13.9 C)
Relative Humidity: 75%
Pressure (altimeter): 29.97 in. Hg (1014 hPa)
Pressure tendency: 0.08 inches (2.8 hPa) lower than three hours ago
ob: KBED 212356Z 19014KT 10SM BKN036 OVC046 18/14 A2997 RMK AO2 RAB05E20 SLP162 P0000 60000 T01830139 10222 20183 56028
cycle: 0

Station Type Date Time Source
KBED TAF 2018/09/21 20:21 UTC NOAA

TAF
AMD KBED 212019Z 2120/2218 18012KT P6SM SCT030 OVC045
FM220000 20014G24KT P6SM BKN050
FM220700 22012G25KT 4SM -SHRA OVC020
FM221000 26012KT P6SM BKN060
FM221300 29010G20KT P6SM SCT200


Example: see airport list